createdAt,value
2023-05-25T00:01:45.237Z,6.72
2023-05-25T00:06:47.197Z,7.28
2023-05-25T00:11:49.209Z,6.13
2023-05-25T00:16:51.906Z,6.68
2023-05-25T00:21:54.148Z,6.53
2023-05-25T00:26:56.869Z,6.38
2023-05-25T00:31:58.567Z,6.93
2023-05-25T00:37:01.472Z,7.22
2023-05-25T00:42:03.639Z,7.13
2023-05-25T00:47:05.748Z,7.18
2023-05-25T00:52:07.777Z,6.82
2023-05-25T00:57:10.633Z,7.57
2023-05-25T01:02:15.164Z,7.57
2023-05-25T01:07:27.941Z,7.68
2023-05-25T01:12:32.211Z,7.00
2023-05-25T01:17:35.561Z,7.35
2023-05-25T01:22:58.770Z,7.68
2023-05-25T01:28:07.247Z,7.60
2023-05-25T01:33:11.056Z,7.78
2023-05-25T01:38:17.927Z,6.55
2023-05-25T01:43:23.049Z,6.50
2023-05-25T01:48:30.728Z,7.70
2023-05-25T01:54:01.365Z,6.68
2023-05-25T01:59:05.217Z,6.35
2023-05-25T02:04:07.833Z,6.50
2023-05-25T02:09:12.152Z,6.68
2023-05-25T02:14:14.017Z,7.45
2023-05-25T02:19:17.742Z,8.30
2023-05-25T02:24:25.599Z,6.68
2023-05-25T02:29:27.989Z,8.38
2023-05-25T02:34:34.870Z,6.93
2023-05-25T02:39:38.721Z,8.20
2023-05-25T02:44:43.206Z,7.00
2023-05-25T02:49:51.168Z,7.30
2023-05-25T02:54:58.520Z,7.45
2023-05-25T03:00:04.900Z,8.30
2023-05-25T03:05:09.241Z,7.50
2023-05-25T03:10:13.721Z,8.18
2023-05-25T03:15:32.032Z,7.32
2023-05-25T03:20:34.773Z,8.35
2023-05-25T03:25:46.225Z,7.20
2023-05-25T03:30:52.463Z,7.93
2023-05-25T03:41:42.169Z,8.77
2023-05-25T03:46:46.394Z,8.85
2023-05-25T03:51:58.935Z,8.30
2023-05-25T03:57:02.279Z,8.27
2023-05-25T04:02:10.042Z,8.55
2023-05-25T04:12:41.157Z,8.02
2023-05-25T04:18:01.216Z,7.55
2023-05-25T04:23:12.559Z,7.85
2023-05-25T04:28:24.338Z,8.35
2023-05-25T04:34:03.079Z,7.78
2023-05-25T04:39:01.705Z,8.75
2023-05-25T04:44:38.827Z,9.57
2023-05-25T04:49:41.468Z,9.02
2023-05-25T04:54:53.004Z,9.13
2023-05-25T05:05:14.073Z,9.02
2023-05-25T05:10:17.701Z,8.38
2023-05-25T05:15:30.983Z,9.40
2023-05-25T05:20:45.500Z,8.15
2023-05-25T05:25:50.285Z,8.70
2023-05-25T05:30:54.311Z,8.43
2023-05-25T05:35:57.766Z,9.70
2023-05-25T05:41:37.998Z,8.38
2023-05-25T05:52:08.162Z,9.52
2023-05-25T05:57:14.259Z,11.10
2023-05-25T06:02:26.901Z,9.95
2023-05-25T06:07:35.417Z,9.55
2023-05-25T06:23:44.581Z,9.02
2023-05-25T06:28:48.001Z,9.27
2023-05-25T06:34:53.341Z,9.98
2023-05-25T06:45:28.640Z,9.20
2023-05-25T06:50:30.655Z,8.77
2023-05-25T06:55:33.364Z,8.98
2023-05-25T07:00:37.224Z,8.68
2023-05-25T07:05:38.893Z,8.07
2023-05-25T07:10:44.419Z,8.52
2023-05-25T07:15:50.477Z,9.15
2023-05-25T07:20:52.786Z,8.65
2023-05-25T07:25:58.593Z,8.88
2023-05-25T07:31:27.419Z,9.13
2023-05-25T07:36:32.289Z,8.40
2023-05-25T07:41:36.271Z,8.77
2023-05-25T07:46:38.300Z,9.13
2023-05-25T07:51:39.919Z,8.55
2023-05-25T07:56:41.595Z,9.13
2023-05-25T08:01:44.993Z,8.98
2023-05-25T08:06:46.716Z,8.02
2023-05-25T08:11:48.475Z,7.28
2023-05-25T08:17:01.827Z,6.47
2023-05-25T08:22:03.731Z,6.95
2023-05-25T08:27:11.182Z,6.05
2023-05-25T08:32:21.948Z,6.13
2023-05-25T08:37:23.900Z,6.10
2023-05-25T08:42:25.550Z,5.38
2023-05-25T08:47:31.845Z,4.68
2023-05-25T08:52:36.385Z,5.70
2023-05-25T08:57:43.890Z,6.32
2023-05-25T09:02:56.027Z,5.85
2023-05-25T09:07:59.142Z,4.47
2023-05-25T09:13:16.626Z,5.35
2023-05-25T09:18:22.736Z,6.18
2023-05-25T09:23:25.070Z,5.82
2023-05-25T09:28:27.792Z,5.93
2023-05-25T09:33:30.197Z,6.15
2023-05-25T09:38:33.493Z,6.00
2023-05-25T09:43:46.762Z,6.55
2023-05-25T09:48:57.941Z,7.13
2023-05-25T09:54:04.222Z,5.95
2023-05-25T09:59:06.918Z,6.63
2023-05-25T10:04:08.614Z,5.22
2023-05-25T10:09:11.813Z,6.28
2023-05-25T10:14:27.089Z,6.40
2023-05-25T10:20:40.412Z,6.93
2023-05-25T10:31:15.773Z,11.43
2023-05-25T10:36:19.280Z,6.45
2023-05-25T10:41:22.604Z,7.38
2023-05-25T10:46:24.861Z,7.07
2023-05-25T10:51:41.436Z,6.57
2023-05-25T11:24:48.173Z,6.53
2023-05-25T11:29:54.364Z,7.22
2023-05-25T11:34:57.098Z,6.80
2023-05-25T11:39:58.824Z,6.00
2023-05-25T11:45:04.031Z,5.93
2023-05-25T11:50:15.692Z,7.40
2023-05-25T11:55:17.859Z,7.65
2023-05-25T12:00:28.647Z,7.68
2023-05-25T12:05:38.269Z,6.45
2023-05-25T12:10:52.221Z,8.50
2023-05-25T12:15:57.948Z,8.25
2023-05-25T12:21:00.353Z,8.38
2023-05-25T12:26:13.372Z,7.25
2023-05-25T12:31:31.262Z,8.20
2023-05-25T12:37:30.659Z,8.95
2023-05-25T12:48:51.295Z,10.05
2023-05-25T12:54:24.634Z,8.80
2023-05-25T12:59:30.828Z,9.38
2023-05-25T13:04:32.568Z,9.60
2023-05-25T13:09:34.253Z,8.13
2023-05-25T13:14:36.090Z,8.07
2023-05-25T13:19:38.386Z,6.57
2023-05-25T13:24:40.755Z,6.55
2023-05-25T13:29:42.361Z,5.68
2023-05-25T13:34:44.068Z,5.72
2023-05-25T13:39:46.068Z,6.45
2023-05-25T13:44:48.053Z,5.45
2023-05-25T13:49:49.831Z,5.70
2023-05-25T13:54:51.387Z,5.68
2023-05-25T13:59:52.904Z,4.57
2023-05-25T14:04:54.509Z,5.25
2023-05-25T14:09:58.057Z,5.47
2023-05-25T14:14:59.649Z,5.55
2023-05-25T14:20:01.305Z,5.30
2023-05-25T14:25:02.825Z,5.25
2023-05-25T14:30:05.440Z,5.53
2023-05-25T14:35:07.721Z,5.65
2023-05-25T14:40:09.867Z,5.22
2023-05-25T14:45:12.878Z,5.75
2023-05-25T14:50:18.410Z,6.47
2023-05-25T14:55:20.739Z,5.50
2023-05-25T15:00:24.567Z,6.93
2023-05-25T15:05:31.101Z,5.68
2023-05-25T15:10:33.065Z,6.18
2023-05-25T15:15:34.834Z,6.55
2023-05-25T15:20:38.831Z,5.25
2023-05-25T15:25:41.232Z,5.50
2023-05-25T15:30:42.809Z,5.93
2023-05-25T15:35:45.521Z,6.07
2023-05-25T15:40:49.585Z,5.90
2023-05-25T15:45:52.227Z,5.22
2023-05-25T15:50:54.006Z,5.50
2023-05-25T15:55:55.761Z,5.38
2023-05-25T16:00:57.288Z,6.40
2023-05-25T16:05:58.881Z,5.22
2023-05-25T16:11:00.623Z,5.38
2023-05-25T16:16:02.333Z,5.53
2023-05-25T16:21:04.368Z,5.78
2023-05-25T16:26:09.340Z,5.28
2023-05-25T16:31:10.867Z,5.60
2023-05-25T16:36:13.440Z,5.40
2023-05-25T16:41:14.945Z,5.25
2023-05-25T16:46:16.654Z,4.00
2023-05-25T16:51:18.514Z,5.38
2023-05-25T16:56:21.593Z,5.57
2023-05-25T17:01:30.627Z,5.05
2023-05-25T17:06:32.406Z,5.63
2023-05-25T17:11:36.616Z,4.95
2023-05-25T17:16:53.022Z,4.85
2023-05-25T17:21:58.919Z,4.15
2023-05-25T17:27:00.706Z,4.18
2023-05-25T17:32:02.815Z,3.92
2023-05-25T17:37:11.913Z,4.82
2023-05-25T17:42:16.859Z,4.28
2023-05-25T17:47:18.417Z,4.32
2023-05-25T17:52:21.003Z,4.30
2023-05-25T17:57:25.499Z,3.53
2023-05-25T18:02:30.849Z,3.88
2023-05-25T18:07:38.222Z,4.00
2023-05-25T18:12:40.076Z,4.03
2023-05-25T18:17:41.779Z,4.40
2023-05-25T18:22:46.210Z,4.50
2023-05-25T18:27:47.976Z,4.13
2023-05-25T18:32:50.028Z,3.60
2023-05-25T18:37:51.737Z,3.95
2023-05-25T18:42:53.385Z,3.97
2023-05-25T18:47:55.897Z,4.55
2023-05-25T18:52:57.838Z,3.92
2023-05-25T18:57:59.391Z,3.55
2023-05-25T19:03:02.091Z,3.83
2023-05-25T19:08:04.221Z,3.65
2023-05-25T19:13:05.862Z,3.67
2023-05-25T19:18:07.376Z,3.65
2023-05-25T19:23:09.055Z,4.75
2023-05-25T19:28:10.525Z,4.22
2023-05-25T19:33:12.016Z,4.22
2023-05-25T19:38:16.107Z,3.65
2023-05-25T19:43:18.121Z,3.88
2023-05-25T19:48:19.622Z,4.45
2023-05-25T19:53:21.213Z,4.38
2023-05-25T19:58:22.646Z,4.07
2023-05-25T20:03:24.302Z,3.85
2023-05-25T20:08:26.014Z,3.97
2023-05-25T20:13:28.075Z,4.47
2023-05-25T20:18:29.666Z,4.68
2023-05-25T20:23:31.240Z,4.50
2023-05-25T20:28:34.435Z,5.07
2023-05-25T20:33:36.174Z,4.47
2023-05-25T20:38:37.630Z,4.47
2023-05-25T20:43:39.536Z,5.28
2023-05-25T20:48:41.092Z,4.85
2023-05-25T20:53:43.199Z,5.55
2023-05-25T20:58:44.826Z,5.53
2023-05-25T21:03:47.551Z,5.28
2023-05-25T21:08:49.396Z,5.32
2023-05-25T21:13:50.797Z,5.07
2023-05-25T21:18:52.203Z,5.05
2023-05-25T21:23:56.134Z,5.25
2023-05-25T21:28:57.909Z,5.22
2023-05-25T21:34:00.431Z,5.32
2023-05-25T21:39:02.546Z,5.18
2023-05-25T21:44:03.996Z,5.18
2023-05-25T21:49:05.904Z,6.18
2023-05-25T21:54:07.342Z,5.63
2023-05-25T21:59:09.104Z,5.72
2023-05-25T22:04:10.607Z,6.30
2023-05-25T22:09:12.166Z,6.07
2023-05-25T22:14:13.659Z,5.82
2023-05-25T22:19:15.235Z,5.40
2023-05-25T22:24:16.783Z,6.30
2023-05-25T22:29:18.234Z,5.50
2023-05-25T22:34:19.908Z,5.72
2023-05-25T22:39:21.298Z,6.80
2023-05-25T22:44:22.653Z,6.22
2023-05-25T22:49:24.226Z,6.30
2023-05-25T22:54:25.600Z,5.97
2023-05-25T22:59:27.333Z,6.20
2023-05-25T23:04:28.915Z,6.03
2023-05-25T23:09:30.477Z,7.47
2023-05-25T23:14:31.940Z,6.10
2023-05-25T23:19:33.430Z,6.85
2023-05-25T23:24:34.931Z,7.15
2023-05-25T23:29:36.349Z,7.15
2023-05-25T23:34:37.842Z,7.80
2023-05-25T23:39:39.356Z,7.35
2023-05-25T23:44:41.564Z,8.32
2023-05-25T23:49:42.991Z,8.32
2023-05-25T23:54:44.449Z,7.18
2023-05-25T23:59:47.924Z,7.13
